Time;durP1;ratioP1;P1;durP2;ratioP2;P2;SDS_P1;SDS_P2;PMS_P1;PMS_P2;Temp;Humidity;BMP_temperature;BMP_pressure;BME280_temperature;BME280_humidity;BME280_pressure;Samples;Min_cycle;Max_cycle;Signal;HPM_P1;HPM_P2
2022/03/17 00:02:00;;;;;;;149.63;34.20;;;;;;;;;;5029646;28;20454;-64
2022/03/17 00:04:30;;;;;;;255.87;38.43;;;;;;;;;;5048788;28;20449;-64
2022/03/17 00:06:59;;;;;;;158.63;33.17;;;;;;;;;;5048048;28;20806;-64
2022/03/17 00:09:26;;;;;;;160.40;34.47;;;;;;;;;;5029890;28;20422;-65
2022/03/17 00:11:55;;;;;;;192.33;34.23;;;;;;;;;;5029867;28;20430;-64
2022/03/17 00:14:24;;;;;;;238.83;34.70;;;;;;;;;;5029105;28;20415;-64
2022/03/17 00:16:53;;;;;;;145.83;33.37;;;;;;;;;;5029727;28;20478;-65
2022/03/17 00:19:21;;;;;;;169.73;32.23;;;;;;;;;;5029092;28;20447;-65
2022/03/17 00:21:52;;;;;;;117.73;32.77;;;;;;;;;;5030000;28;20438;-64
2022/03/17 00:24:28;;;;;;;163.20;32.23;;;;;;;;;;5029745;28;20438;-64
2022/03/17 00:26:57;;;;;;;138.27;31.20;;;;;;;;;;5030142;28;20453;-64
2022/03/17 00:29:33;;;;;;;169.53;31.53;;;;;;;;;;5029517;28;20481;-64
2022/03/17 00:32:02;;;;;;;104.30;32.80;;;;;;;;;;5029042;28;21125;-64
2022/03/17 00:34:31;;;;;;;185.00;33.20;;;;;;;;;;5029218;28;20426;-64
2022/03/17 00:37:00;;;;;;;124.87;32.93;;;;;;;;;;5047279;28;20465;-64
2022/03/17 00:39:29;;;;;;;222.23;34.27;;;;;;;;;;5049345;28;20434;-64
2022/03/17 00:41:59;;;;;;;185.80;33.50;;;;;;;;;;5049386;28;20460;-64
2022/03/17 00:44:27;;;;;;;186.30;32.97;;;;;;;;;;5048304;28;20426;-64
2022/03/17 00:46:55;;;;;;;161.57;31.17;;;;;;;;;;5048455;28;20467;-64
2022/03/17 00:49:23;;;;;;;99.13;32.43;;;;;;;;;;5048988;28;20524;-64
2022/03/17 00:51:52;;;;;;;211.23;33.73;;;;;;;;;;5049407;28;20897;-64
2022/03/17 00:54:19;;;;;;;190.93;30.73;;;;;;;;;;5048968;28;20445;-64
2022/03/17 00:56:45;;;;;;;192.20;33.40;;;;;;;;;;5048021;28;20898;-64
2022/03/17 00:59:14;;;;;;;201.70;34.43;;;;;;;;;;5049165;28;20531;-64
2022/03/17 01:01:40;;;;;;;238.10;38.47;;;;;;;;;;5048804;28;20971;-64
2022/03/17 01:40:07;;;;;;;129.63;30.60;;;;;;;;;;5048415;28;20508;-64
2022/03/17 01:42:34;;;;;;;122.80;28.90;;;;;;;;;;5048546;28;20433;-64
2022/03/17 01:45:01;;;;;;;107.30;28.23;;;;;;;;;;5047459;28;20808;-64
2022/03/17 01:47:27;;;;;;;152.77;30.87;;;;;;;;;;5048182;28;20429;-64
2022/03/17 01:49:55;;;;;;;133.47;30.83;;;;;;;;;;5048172;28;20457;-64
2022/03/17 01:52:26;;;;;;;130.57;30.87;;;;;;;;;;5047842;28;20455;-64
2022/03/17 01:54:53;;;;;;;112.97;28.83;;;;;;;;;;5048026;28;20425;-64
2022/03/17 01:57:20;;;;;;;206.13;33.17;;;;;;;;;;5047265;28;20472;-64
2022/03/17 01:59:47;;;;;;;186.83;32.43;;;;;;;;;;5047012;28;20421;-64
2022/03/17 02:02:14;;;;;;;132.33;29.80;;;;;;;;;;5047346;28;20455;-64
2022/03/17 02:04:43;;;;;;;176.37;32.43;;;;;;;;;;5047521;28;20426;-64
2022/03/17 02:07:11;;;;;;;91.53;28.43;;;;;;;;;;5043866;28;20527;-64
2022/03/17 02:09:38;;;;;;;172.43;28.93;;;;;;;;;;5028222;28;20429;-64
2022/03/17 02:14:51;;;;;;;135.30;28.60;;;;;;;;;;5028373;28;20434;-64
2022/03/17 02:17:18;;;;;;;114.13;28.17;;;;;;;;;;5027791;28;20992;-64
2022/03/17 02:19:45;;;;;;;96.73;26.50;;;;;;;;;;5028232;28;20429;-64
2022/03/17 02:22:13;;;;;;;96.80;27.70;;;;;;;;;;5043396;28;20430;-64
2022/03/17 02:27:28;;;;;;;96.03;27.67;;;;;;;;;;5027940;28;20434;-64
2022/03/17 02:29:55;;;;;;;104.00;29.60;;;;;;;;;;5027955;28;20426;-64
2022/03/17 02:32:21;;;;;;;97.53;28.10;;;;;;;;;;5026981;28;20489;-64
2022/03/17 02:34:48;;;;;;;162.67;32.57;;;;;;;;;;5027814;28;20414;-64
2022/03/17 02:37:15;;;;;;;94.63;30.23;;;;;;;;;;5027517;28;20481;-64
2022/03/17 02:39:42;;;;;;;87.23;29.20;;;;;;;;;;5027432;28;20848;-64
2022/03/17 02:42:10;;;;;;;119.10;31.87;;;;;;;;;;5027487;28;20482;-64
2022/03/17 02:44:37;;;;;;;112.03;32.10;;;;;;;;;;5027404;28;20422;-64
2022/03/17 02:47:04;;;;;;;128.40;32.47;;;;;;;;;;5027263;28;20470;-64
2022/03/17 02:49:31;;;;;;;116.53;30.67;;;;;;;;;;5027492;28;20429;-64
2022/03/17 02:52:03;;;;;;;137.77;29.60;;;;;;;;;;5025965;28;20448;-64
2022/03/17 02:54:30;;;;;;;154.33;29.93;;;;;;;;;;5027354;28;20461;-64
2022/03/17 02:56:56;;;;;;;108.10;31.97;;;;;;;;;;5027830;28;20849;-64
2022/03/17 02:59:23;;;;;;;108.17;28.97;;;;;;;;;;5027489;28;20431;-64
2022/03/17 03:01:50;;;;;;;91.93;27.27;;;;;;;;;;5026441;28;20925;-64
2022/03/17 03:04:17;;;;;;;126.37;28.70;;;;;;;;;;5028005;28;20430;-64
2022/03/17 03:06:46;;;;;;;78.57;27.40;;;;;;;;;;5028000;28;20438;-64
2022/03/17 03:09:14;;;;;;;95.30;29.27;;;;;;;;;;5041102;28;21042;-64
2022/03/17 03:11:40;;;;;;;78.97;27.03;;;;;;;;;;5030963;28;20965;-65
2022/03/17 03:14:07;;;;;;;84.77;26.67;;;;;;;;;;5031113;28;20410;-64
2022/03/17 03:16:35;;;;;;;116.80;28.37;;;;;;;;;;5032475;28;20509;-64
2022/03/17 03:19:02;;;;;;;104.77;26.87;;;;;;;;;;5033804;28;20432;-64
2022/03/17 03:21:29;;;;;;;94.30;26.93;;;;;;;;;;5031841;28;20805;-64
2022/03/17 03:23:55;;;;;;;146.13;27.07;;;;;;;;;;5045773;28;20789;-64
2022/03/17 03:26:22;;;;;;;141.03;28.00;;;;;;;;;;5031036;28;20457;-64
2022/03/17 03:28:49;;;;;;;108.70;28.17;;;;;;;;;;5050823;28;21150;-64
2022/03/17 03:31:16;;;;;;;104.07;28.60;;;;;;;;;;5050420;28;20524;-64
2022/03/17 03:33:43;;;;;;;89.60;29.23;;;;;;;;;;5050541;28;20438;-64
2022/03/17 03:38:56;;;;;;;137.60;27.40;;;;;;;;;;5049736;28;20919;-65
2022/03/17 03:41:23;;;;;;;140.93;27.70;;;;;;;;;;5050387;28;20453;-64
2022/03/17 03:43:50;;;;;;;133.73;26.30;;;;;;;;;;5036083;28;20802;-64
2022/03/17 03:46:16;;;;;;;114.67;28.73;;;;;;;;;;5030195;28;20422;-63
2022/03/17 03:48:43;;;;;;;76.70;27.47;;;;;;;;;;5030943;28;21000;-63
2022/03/17 03:51:11;;;;;;;180.30;27.47;;;;;;;;;;5030440;28;20922;-64
2022/03/17 03:56:40;;;;;;;84.03;26.07;;;;;;;;;;5029846;28;20460;-63
2022/03/17 04:01:46;;;;;;;138.33;27.80;;;;;;;;;;5049667;28;20869;-64
2022/03/17 04:04:17;;;;;;;123.10;27.33;;;;;;;;;;5050303;28;20436;-63
2022/03/17 04:06:47;;;;;;;134.00;25.87;;;;;;;;;;5036597;28;20506;-65
2022/03/17 04:09:14;;;;;;;113.33;28.07;;;;;;;;;;5043590;28;21098;-65
2022/03/17 04:11:41;;;;;;;96.40;25.03;;;;;;;;;;5043581;28;20524;-65
2022/03/17 04:14:09;;;;;;;118.37;26.10;;;;;;;;;;5042609;28;20936;-64
2022/03/17 04:16:36;;;;;;;127.37;26.83;;;;;;;;;;5042768;28;20429;-64
2022/03/17 04:19:03;;;;;;;119.20;24.83;;;;;;;;;;5041825;28;20453;-65
2022/03/17 04:21:30;;;;;;;116.30;25.47;;;;;;;;;;5041990;28;20467;-63
2022/03/17 04:23:57;;;;;;;113.33;25.37;;;;;;;;;;5042808;28;20496;-64
2022/03/17 04:26:24;;;;;;;129.93;28.60;;;;;;;;;;5042846;28;20437;-64
2022/03/17 04:28:51;;;;;;;85.33;27.70;;;;;;;;;;5043294;28;20453;-64
2022/03/17 04:31:18;;;;;;;93.40;25.73;;;;;;;;;;5042607;28;21295;-65
2022/03/17 04:33:45;;;;;;;80.17;22.87;;;;;;;;;;5044503;28;20437;-64
2022/03/17 04:36:12;;;;;;;119.70;24.67;;;;;;;;;;5044491;28;20847;-66
2022/03/17 04:38:40;;;;;;;72.83;21.23;;;;;;;;;;5043772;28;20473;-64
2022/03/17 04:41:08;;;;;;;100.23;26.10;;;;;;;;;;5043425;28;20534;-63
2022/03/17 04:43:34;;;;;;;70.97;22.70;;;;;;;;;;5043918;28;21311;-64
2022/03/17 04:46:20;;;;;;;110.47;25.37;;;;;;;;;;5042496;28;20467;-63
2022/03/17 04:48:46;;;;;;;114.03;24.27;;;;;;;;;;5044376;28;20433;-66
2022/03/17 04:51:14;;;;;;;91.77;22.53;;;;;;;;;;5044668;28;20525;-65
2022/03/17 04:53:45;;;;;;;74.87;23.67;;;;;;;;;;5041874;28;20433;-65
2022/03/17 04:56:12;;;;;;;79.27;25.03;;;;;;;;;;5043809;28;20986;-64
2022/03/17 04:58:40;;;;;;;91.17;23.97;;;;;;;;;;5042485;28;20487;-64
2022/03/17 05:01:07;;;;;;;88.60;25.27;;;;;;;;;;5042143;28;20435;-64
2022/03/17 05:03:34;;;;;;;74.10;24.83;;;;;;;;;;5040654;28;20460;-64
2022/03/17 05:06:01;;;;;;;77.00;25.47;;;;;;;;;;5042949;28;20494;-64
2022/03/17 05:08:28;;;;;;;56.60;23.03;;;;;;;;;;5042471;28;20437;-65
2022/03/17 05:10:55;;;;;;;64.80;25.80;;;;;;;;;;5043503;28;20426;-63
2022/03/17 05:13:22;;;;;;;74.63;25.53;;;;;;;;;;5042567;28;20437;-64
2022/03/17 05:15:49;;;;;;;61.23;24.37;;;;;;;;;;5041950;28;20448;-64
2022/03/17 05:18:16;;;;;;;62.20;23.97;;;;;;;;;;5043391;28;20583;-63
2022/03/17 05:20:43;;;;;;;71.93;24.80;;;;;;;;;;5043763;28;20500;-64
2022/03/17 05:23:10;;;;;;;83.60;24.53;;;;;;;;;;5043299;28;20541;-64
2022/03/17 05:25:38;;;;;;;62.70;24.03;;;;;;;;;;5042066;28;20440;-64
2022/03/17 05:28:05;;;;;;;67.17;25.77;;;;;;;;;;5042852;28;20798;-64
2022/03/17 05:30:32;;;;;;;118.87;26.80;;;;;;;;;;5042799;28;20434;-65
2022/03/17 05:32:59;;;;;;;73.60;25.13;;;;;;;;;;5042274;28;20532;-63
2022/03/17 05:35:26;;;;;;;85.60;27.00;;;;;;;;;;5041698;28;20456;-65
2022/03/17 05:37:53;;;;;;;65.47;26.53;;;;;;;;;;5041894;28;20477;-65
2022/03/17 05:40:20;;;;;;;98.07;29.27;;;;;;;;;;5038662;28;20524;-63
2022/03/17 05:42:52;;;;;;;83.43;25.53;;;;;;;;;;5046361;28;20446;-64
2022/03/17 05:45:20;;;;;;;127.83;42.83;;;;;;;;;;5032415;28;20438;-64
2022/03/17 05:47:50;;;;;;;124.30;37.80;;;;;;;;;;5055527;28;20431;-63
2022/03/17 05:50:18;;;;;;;148.23;25.57;;;;;;;;;;5036841;28;20449;-63
2022/03/17 05:52:44;;;;;;;99.27;24.83;;;;;;;;;;5028606;28;20970;-64
2022/03/17 05:55:11;;;;;;;117.73;29.77;;;;;;;;;;5028967;28;20434;-63
2022/03/17 05:57:39;;;;;;;117.77;23.87;;;;;;;;;;5028154;28;20996;-64
2022/03/17 06:00:06;;;;;;;75.47;24.07;;;;;;;;;;5042167;28;20448;-64
2022/03/17 06:02:33;;;;;;;186.70;27.17;;;;;;;;;;5037914;28;20422;-64
2022/03/17 06:05:01;;;;;;;59.93;21.37;;;;;;;;;;5028427;28;20484;-64
2022/03/17 06:07:40;;;;;;;138.17;22.93;;;;;;;;;;5028092;28;20525;-65
2022/03/17 06:10:07;;;;;;;67.23;24.93;;;;;;;;;;5043329;28;20463;-64
2022/03/17 06:12:34;;;;;;;88.90;24.60;;;;;;;;;;5039767;28;20438;-65
2022/03/17 06:15:01;;;;;;;73.40;25.33;;;;;;;;;;5041839;28;20524;-65
2022/03/17 06:17:39;;;;;;;73.17;25.30;;;;;;;;;;5040761;28;21442;-65
2022/03/17 06:20:09;;;;;;;75.57;24.53;;;;;;;;;;5042251;28;20437;-65
2022/03/17 06:22:37;;;;;;;74.27;23.97;;;;;;;;;;5041073;28;20539;-66
2022/03/17 06:25:05;;;;;;;71.30;30.20;;;;;;;;;;5042001;28;20443;-63
2022/03/17 06:27:34;;;;;;;55.70;25.90;;;;;;;;;;5051898;28;20429;-65
2022/03/17 06:30:02;;;;;;;50.90;25.13;;;;;;;;;;5040669;28;20429;-65
2022/03/17 06:32:29;;;;;;;51.73;26.17;;;;;;;;;;5040903;28;20448;-64
2022/03/17 06:34:56;;;;;;;59.97;27.57;;;;;;;;;;5041101;28;20516;-63
2022/03/17 06:37:23;;;;;;;60.80;30.13;;;;;;;;;;5041549;28;20431;-64
2022/03/17 06:39:50;;;;;;;54.83;28.07;;;;;;;;;;5036546;28;20951;-64
2022/03/17 06:42:16;;;;;;;50.87;24.67;;;;;;;;;;5046631;28;20500;-63
2022/03/17 06:44:44;;;;;;;54.03;25.57;;;;;;;;;;5037662;28;20531;-65
2022/03/17 06:47:10;;;;;;;54.17;25.00;;;;;;;;;;5032326;28;20841;-63
2022/03/17 06:49:37;;;;;;;51.33;25.67;;;;;;;;;;5032081;28;21307;-63
2022/03/17 06:52:04;;;;;;;53.17;26.23;;;;;;;;;;5032044;28;20423;-63
2022/03/17 06:54:31;;;;;;;57.30;28.13;;;;;;;;;;5031558;28;20433;-63
2022/03/17 06:56:59;;;;;;;46.73;24.60;;;;;;;;;;5030125;28;21277;-64
2022/03/17 06:59:26;;;;;;;53.37;25.13;;;;;;;;;;5031604;28;20483;-63
2022/03/17 07:01:52;;;;;;;47.20;25.30;;;;;;;;;;5031453;28;20520;-64
2022/03/17 07:04:19;;;;;;;46.43;25.17;;;;;;;;;;5031408;28;20495;-64
2022/03/17 07:06:46;;;;;;;49.30;27.67;;;;;;;;;;5032306;28;20450;-64
2022/03/17 07:09:13;;;;;;;48.43;26.90;;;;;;;;;;5051091;28;20762;-64
2022/03/17 07:11:40;;;;;;;41.33;23.97;;;;;;;;;;5051084;28;20429;-64
2022/03/17 07:14:07;;;;;;;38.97;22.30;;;;;;;;;;5051334;28;20936;-64
2022/03/17 07:16:36;;;;;;;40.60;23.83;;;;;;;;;;5051189;28;20491;-64
2022/03/17 07:19:04;;;;;;;43.47;25.20;;;;;;;;;;5051285;28;20515;-64
2022/03/17 07:21:30;;;;;;;39.53;24.07;;;;;;;;;;5051303;28;20453;-64
2022/03/17 07:24:00;;;;;;;36.90;22.77;;;;;;;;;;5050895;28;20199;-64
2022/03/17 07:26:27;;;;;;;33.73;20.93;;;;;;;;;;5051198;28;20736;-64
2022/03/17 07:28:54;;;;;;;37.33;23.10;;;;;;;;;;5050932;28;20191;-64
2022/03/17 07:31:21;;;;;;;32.40;19.73;;;;;;;;;;5050493;28;20187;-63
2022/03/17 07:33:49;;;;;;;28.50;20.13;;;;;;;;;;5051280;28;20251;-64
2022/03/17 07:36:16;;;;;;;32.93;19.93;;;;;;;;;;5051044;28;20171;-64
2022/03/17 07:38:48;;;;;;;30.73;19.87;;;;;;;;;;5050722;28;20214;-64
2022/03/17 07:41:15;;;;;;;29.30;19.77;;;;;;;;;;5050756;28;20222;-64
2022/03/17 07:43:43;;;;;;;30.67;19.80;;;;;;;;;;5050356;28;20195;-64
2022/03/17 07:46:45;;;;;;;31.87;19.67;;;;;;;;;;5050109;28;20201;-64
2022/03/17 07:49:22;;;;;;;28.90;19.80;;;;;;;;;;5049346;28;20195;-64
2022/03/17 07:51:49;;;;;;;28.23;18.43;;;;;;;;;;5049588;28;20732;-64
2022/03/17 07:54:19;;;;;;;29.77;19.50;;;;;;;;;;5048897;28;20293;-64
2022/03/17 07:56:46;;;;;;;34.30;20.27;;;;;;;;;;5049256;28;20198;-64
2022/03/17 07:59:13;;;;;;;30.87;20.30;;;;;;;;;;5050178;28;20641;-65
2022/03/17 08:01:39;;;;;;;32.57;19.80;;;;;;;;;;5050556;28;20673;-64
2022/03/17 08:04:06;;;;;;;31.17;19.87;;;;;;;;;;5051857;28;20216;-64
2022/03/17 08:06:33;;;;;;;29.67;19.43;;;;;;;;;;5051984;28;20215;-64
2022/03/17 08:09:00;;;;;;;31.37;20.90;;;;;;;;;;5031101;28;20195;-65
2022/03/17 08:11:27;;;;;;;33.17;20.77;;;;;;;;;;5027649;28;20218;-65
2022/03/17 08:13:54;;;;;;;31.70;20.23;;;;;;;;;;5039259;28;20198;-63
2022/03/17 08:16:20;;;;;;;31.67;20.77;;;;;;;;;;5042922;28;20210;-65
2022/03/17 08:18:49;;;;;;;31.77;20.40;;;;;;;;;;5043539;28;20222;-65
2022/03/17 08:21:17;;;;;;;32.43;19.97;;;;;;;;;;5043609;28;20550;-64
2022/03/17 08:23:45;;;;;;;32.63;20.63;;;;;;;;;;5043627;28;20187;-64
2022/03/17 08:26:12;;;;;;;29.80;20.50;;;;;;;;;;5043626;28;20198;-64
2022/03/17 08:28:39;;;;;;;31.17;20.00;;;;;;;;;;5043073;28;20952;-64
2022/03/17 08:31:06;;;;;;;30.50;20.93;;;;;;;;;;5044316;28;20558;-63
2022/03/17 08:33:34;;;;;;;30.83;20.03;;;;;;;;;;5043666;28;20681;-67
2022/03/17 08:36:01;;;;;;;33.13;21.00;;;;;;;;;;5042176;28;20217;-64
2022/03/17 08:38:27;;;;;;;33.87;20.77;;;;;;;;;;5048776;28;20601;-67
2022/03/17 08:40:54;;;;;;;34.63;21.37;;;;;;;;;;5050683;28;20665;-67
2022/03/17 08:43:21;;;;;;;32.57;21.03;;;;;;;;;;5048503;28;20252;-66
2022/03/17 08:51:24;;;;;;;29.97;20.90;;;;;;;;;;5047154;28;20183;-64
2022/03/17 08:53:51;;;;;;;31.67;20.37;;;;;;;;;;5047391;28;20730;-65
2022/03/17 08:56:18;;;;;;;29.77;21.10;;;;;;;;;;5047506;28;20245;-66
2022/03/17 08:58:45;;;;;;;31.40;20.77;;;;;;;;;;5047016;28;20211;-65
2022/03/17 09:01:12;;;;;;;31.40;20.47;;;;;;;;;;5045875;28;20659;-65
2022/03/17 09:03:39;;;;;;;31.77;21.13;;;;;;;;;;5047668;28;20238;-62
2022/03/17 09:06:10;;;;;;;29.63;20.30;;;;;;;;;;5045848;28;20195;-64
2022/03/17 09:08:41;;;;;;;28.77;19.30;;;;;;;;;;5033556;28;20880;-63
2022/03/17 09:11:08;;;;;;;29.83;20.53;;;;;;;;;;5047704;28;20203;-65
2022/03/17 09:13:35;;;;;;;27.80;20.07;;;;;;;;;;5046886;28;20190;-64
2022/03/17 09:16:02;;;;;;;30.03;19.30;;;;;;;;;;5046798;28;20318;-64
2022/03/17 09:18:29;;;;;;;29.70;19.20;;;;;;;;;;5046054;28;20755;-64
2022/03/17 09:20:59;;;;;;;26.43;19.27;;;;;;;;;;5046736;28;20260;-63
2022/03/17 09:23:29;;;;;;;29.67;19.00;;;;;;;;;;5047454;28;20191;-65
2022/03/17 09:25:56;;;;;;;28.30;18.93;;;;;;;;;;5046877;28;20202;-64
2022/03/17 09:28:22;;;;;;;30.80;19.87;;;;;;;;;;5046446;28;20205;-63
2022/03/17 09:30:51;;;;;;;30.03;18.77;;;;;;;;;;5047475;28;20202;-63
2022/03/17 09:33:18;;;;;;;26.60;18.23;;;;;;;;;;5046821;28;20276;-63
2022/03/17 09:35:45;;;;;;;27.83;18.77;;;;;;;;;;5045517;28;20625;-63
2022/03/17 09:38:11;;;;;;;27.50;18.07;;;;;;;;;;5047192;28;20731;-63
2022/03/17 09:40:38;;;;;;;26.17;18.10;;;;;;;;;;5046355;28;21123;-63
2022/03/17 09:43:28;;;;;;;26.67;18.40;;;;;;;;;;5036232;28;20190;-64
2022/03/17 09:45:56;;;;;;;26.77;18.00;;;;;;;;;;5046607;28;20190;-64
2022/03/17 09:48:23;;;;;;;26.57;18.77;;;;;;;;;;5046557;28;20197;-66
2022/03/17 09:50:55;;;;;;;27.87;19.40;;;;;;;;;;5041698;28;20214;-64
2022/03/17 09:53:26;;;;;;;29.87;19.67;;;;;;;;;;5040011;28;20217;-64
2022/03/17 09:55:53;;;;;;;27.93;19.17;;;;;;;;;;5038687;28;20197;-64
2022/03/17 09:58:20;;;;;;;27.37;19.77;;;;;;;;;;5046363;28;20260;-64
2022/03/17 10:00:50;;;;;;;29.07;18.80;;;;;;;;;;5044197;28;20209;-63
2022/03/17 10:03:26;;;;;;;26.60;18.17;;;;;;;;;;5044531;28;20191;-63
2022/03/17 10:05:54;;;;;;;27.63;18.43;;;;;;;;;;5043105;28;20195;-63
2022/03/17 10:08:21;;;;;;;27.93;17.63;;;;;;;;;;5044517;28;20569;-64
2022/03/17 10:10:49;;;;;;;25.87;18.00;;;;;;;;;;5042376;28;20194;-65
2022/03/17 10:13:17;;;;;;;32.97;22.93;;;;;;;;;;5042136;28;20906;-69
2022/03/17 10:15:47;;;;;;;33.30;22.73;;;;;;;;;;5042474;28;20187;-66
2022/03/17 10:18:23;;;;;;;34.77;22.80;;;;;;;;;;5041624;28;20646;-67
2022/03/17 10:21:12;;;;;;;35.80;21.47;;;;;;;;;;5046430;28;20235;-67
2022/03/17 10:23:49;;;;;;;29.87;21.03;;;;;;;;;;5045164;28;21044;-67
2022/03/17 10:26:35;;;;;;;30.97;19.67;;;;;;;;;;5045526;28;21214;-67
2022/03/17 10:29:08;;;;;;;35.80;22.23;;;;;;;;;;5042520;28;20187;-71
2022/03/17 10:32:01;;;;;;;33.20;21.80;;;;;;;;;;5045124;28;20195;-70
2022/03/17 10:34:48;;;;;;;32.83;22.70;;;;;;;;;;5044650;28;20343;-68
2022/03/17 10:37:34;;;;;;;38.17;21.80;;;;;;;;;;5045393;28;20213;-68
2022/03/17 10:40:05;;;;;;;34.13;22.40;;;;;;;;;;5045988;28;20313;-67
2022/03/17 10:42:32;;;;;;;29.40;21.00;;;;;;;;;;5044038;28;20185;-69
2022/03/17 10:45:00;;;;;;;29.70;21.67;;;;;;;;;;5042042;28;20542;-68
2022/03/17 10:47:31;;;;;;;34.40;22.90;;;;;;;;;;5041607;28;20208;-67
2022/03/17 10:50:15;;;;;;;31.30;21.30;;;;;;;;;;5027116;28;20191;-68
2022/03/17 10:52:42;;;;;;;34.80;21.43;;;;;;;;;;5043424;28;20198;-69
2022/03/17 10:55:11;;;;;;;30.73;20.60;;;;;;;;;;5045824;28;20717;-70
2022/03/17 10:57:38;;;;;;;31.63;21.70;;;;;;;;;;5045219;28;20653;-69
2022/03/17 11:00:09;;;;;;;28.23;21.03;;;;;;;;;;5041186;28;20343;-69
2022/03/17 11:02:37;;;;;;;33.33;20.83;;;;;;;;;;5044630;28;20193;-71
2022/03/17 11:05:10;;;;;;;31.00;21.40;;;;;;;;;;5043526;28;20213;-69
2022/03/17 11:07:38;;;;;;;29.40;20.90;;;;;;;;;;5045314;28;20195;-68
2022/03/17 11:10:07;;;;;;;30.70;21.70;;;;;;;;;;5045151;28;20262;-69
2022/03/17 11:12:36;;;;;;;28.53;20.17;;;;;;;;;;5045396;28;21298;-68
2022/03/17 11:15:03;;;;;;;29.73;21.17;;;;;;;;;;5044568;28;20456;-69
2022/03/17 11:17:38;;;;;;;30.80;19.80;;;;;;;;;;5028649;28;20689;-71
2022/03/17 11:20:05;;;;;;;27.57;19.50;;;;;;;;;;5044033;28;20301;-66
2022/03/17 11:22:33;;;;;;;32.20;20.67;;;;;;;;;;5044184;28;20231;-68
2022/03/17 11:25:19;;;;;;;34.13;20.70;;;;;;;;;;5026339;28;20195;-68
2022/03/17 11:27:47;;;;;;;33.63;20.13;;;;;;;;;;5046140;28;20183;-70
2022/03/17 11:30:16;;;;;;;29.57;19.33;;;;;;;;;;5043528;28;20213;-71
2022/03/17 11:32:56;;;;;;;28.50;19.50;;;;;;;;;;5045090;28;20768;-70
2022/03/17 11:35:29;;;;;;;28.03;18.73;;;;;;;;;;5043232;28;20189;-67
2022/03/17 11:38:17;;;;;;;25.03;18.53;;;;;;;;;;5044065;28;20282;-69
2022/03/17 11:41:03;;;;;;;28.70;18.93;;;;;;;;;;5044965;28;20242;-68
2022/03/17 11:43:47;;;;;;;26.20;18.57;;;;;;;;;;5045080;28;20198;-71
2022/03/17 11:46:14;;;;;;;29.07;18.23;;;;;;;;;;5044808;28;20273;-70
2022/03/17 11:48:42;;;;;;;27.97;18.77;;;;;;;;;;5044521;28;20186;-67
2022/03/17 11:51:09;;;;;;;27.90;18.93;;;;;;;;;;5044851;28;20187;-70
2022/03/17 11:53:44;;;;;;;25.50;18.83;;;;;;;;;;5045174;28;20295;-71
2022/03/17 11:56:37;;;;;;;28.70;19.13;;;;;;;;;;5044066;28;20194;-67
2022/03/17 11:59:07;;;;;;;28.53;18.87;;;;;;;;;;5045707;28;20796;-68
2022/03/17 12:01:35;;;;;;;26.67;19.13;;;;;;;;;;5045400;28;20189;-68
2022/03/17 12:04:03;;;;;;;31.17;19.60;;;;;;;;;;5045541;28;20191;-67
2022/03/17 12:06:31;;;;;;;30.70;19.87;;;;;;;;;;5043413;28;20201;-69
2022/03/17 12:09:01;;;;;;;26.00;19.33;;;;;;;;;;5060240;28;20221;-68
2022/03/17 12:11:28;;;;;;;32.53;19.80;;;;;;;;;;5044667;28;20183;-69
2022/03/17 12:14:22;;;;;;;28.90;19.10;;;;;;;;;;5044498;28;20589;-71
2022/03/17 12:16:51;;;;;;;32.03;19.40;;;;;;;;;;5043657;28;20205;-69
2022/03/17 12:19:37;;;;;;;29.77;18.20;;;;;;;;;;5042879;28;20257;-69
2022/03/17 12:22:05;;;;;;;28.20;19.20;;;;;;;;;;5043947;28;21127;-66
2022/03/17 12:24:41;;;;;;;30.77;19.97;;;;;;;;;;5044406;28;20197;-65
2022/03/17 12:27:11;;;;;;;28.80;19.43;;;;;;;;;;5044682;28;20203;-68
2022/03/17 12:29:39;;;;;;;32.03;21.00;;;;;;;;;;5044610;28;21011;-66
2022/03/17 12:32:06;;;;;;;28.77;18.83;;;;;;;;;;5040586;28;20671;-67
2022/03/17 12:34:34;;;;;;;28.83;19.70;;;;;;;;;;5041751;28;21046;-71
2022/03/17 12:37:01;;;;;;;28.60;19.10;;;;;;;;;;5044049;28;20706;-70
2022/03/17 12:39:36;;;;;;;26.30;18.97;;;;;;;;;;5043817;28;20708;-65
2022/03/17 12:42:22;;;;;;;26.57;17.90;;;;;;;;;;5042356;28;20226;-67
2022/03/17 12:44:50;;;;;;;26.67;18.20;;;;;;;;;;5042021;28;20276;-67
2022/03/17 12:47:18;;;;;;;27.03;18.43;;;;;;;;;;5041862;28;20202;-68
2022/03/17 12:49:47;;;;;;;28.37;17.97;;;;;;;;;;5042395;28;20198;-66
2022/03/17 12:52:18;;;;;;;26.80;16.90;;;;;;;;;;5044590;28;20198;-68
2022/03/17 12:54:45;;;;;;;26.63;17.30;;;;;;;;;;5043557;28;20194;-67
2022/03/17 12:57:12;;;;;;;25.77;17.53;;;;;;;;;;5043097;28;20203;-68
2022/03/17 12:59:39;;;;;;;24.33;16.80;;;;;;;;;;5041934;28;20215;-66
2022/03/17 13:02:05;;;;;;;23.97;16.30;;;;;;;;;;5041845;28;20852;-66
2022/03/17 13:04:39;;;;;;;25.23;16.60;;;;;;;;;;5041600;28;21091;-66
2022/03/17 13:07:06;;;;;;;24.30;16.50;;;;;;;;;;5041511;28;20178;-68
2022/03/17 13:09:33;;;;;;;24.43;16.07;;;;;;;;;;5042238;28;20221;-67
2022/03/17 13:14:49;;;;;;;24.30;15.27;;;;;;;;;;5040737;28;20203;-68
2022/03/17 13:17:29;;;;;;;24.63;15.80;;;;;;;;;;5039039;28;20202;-68
2022/03/17 13:19:56;;;;;;;28.23;14.73;;;;;;;;;;5042239;28;20569;-68
2022/03/17 13:22:24;;;;;;;22.20;14.07;;;;;;;;;;5042804;28;20191;-71
2022/03/17 13:25:05;;;;;;;20.20;14.00;;;;;;;;;;5040378;28;20222;-66
2022/03/17 13:27:33;;;;;;;21.57;14.17;;;;;;;;;;5041029;28;20202;-69
2022/03/17 13:30:14;;;;;;;21.50;14.10;;;;;;;;;;5040944;28;20277;-69
2022/03/17 13:32:43;;;;;;;21.23;13.47;;;;;;;;;;5041860;28;20289;-67
2022/03/17 13:35:11;;;;;;;20.10;13.80;;;;;;;;;;5041201;28;20293;-67
2022/03/17 13:37:39;;;;;;;22.20;13.57;;;;;;;;;;5042369;28;20210;-68
2022/03/17 13:40:09;;;;;;;24.97;14.63;;;;;;;;;;5042624;28;20225;-68
2022/03/17 13:42:36;;;;;;;23.50;14.97;;;;;;;;;;5043338;28;20268;-72
2022/03/17 13:45:03;;;;;;;23.30;14.20;;;;;;;;;;5040815;28;20195;-69
2022/03/17 13:47:48;;;;;;;24.47;14.77;;;;;;;;;;5041066;28;20556;-70
2022/03/17 13:50:18;;;;;;;26.13;14.73;;;;;;;;;;5045949;28;20196;-69
2022/03/17 13:52:53;;;;;;;27.03;15.20;;;;;;;;;;5047503;28;20657;-69
2022/03/17 13:55:21;;;;;;;23.10;13.93;;;;;;;;;;5047297;28;20198;-69
2022/03/17 13:57:48;;;;;;;21.83;15.00;;;;;;;;;;5048732;28;20268;-69
2022/03/17 14:00:19;;;;;;;23.17;14.27;;;;;;;;;;5047404;28;20202;-69
2022/03/17 14:02:46;;;;;;;21.40;14.27;;;;;;;;;;5048490;28;20191;-69
2022/03/17 14:05:13;;;;;;;21.50;14.77;;;;;;;;;;5047379;28;20199;-69
2022/03/17 14:07:40;;;;;;;23.83;15.03;;;;;;;;;;5046985;28;20857;-69
2022/03/17 14:10:07;;;;;;;24.40;16.00;;;;;;;;;;5048977;28;20233;-69
2022/03/17 14:12:36;;;;;;;22.43;15.33;;;;;;;;;;5048678;28;20550;-69
2022/03/17 14:15:02;;;;;;;23.50;15.20;;;;;;;;;;5048178;28;20236;-69
2022/03/17 14:17:29;;;;;;;23.50;14.83;;;;;;;;;;5047036;28;20187;-69
2022/03/17 14:19:56;;;;;;;24.90;15.27;;;;;;;;;;5036821;28;20216;-72
2022/03/17 14:25:09;;;;;;;27.03;15.87;;;;;;;;;;5040876;28;20605;-71
2022/03/17 14:27:36;;;;;;;24.33;14.93;;;;;;;;;;5042620;28;21533;-72
2022/03/17 14:30:03;;;;;;;22.67;14.57;;;;;;;;;;5041761;28;20601;-71
2022/03/17 14:32:32;;;;;;;27.10;15.60;;;;;;;;;;5042555;28;20214;-72
2022/03/17 14:34:59;;;;;;;23.23;14.93;;;;;;;;;;5040579;28;20198;-71
2022/03/17 14:37:25;;;;;;;24.23;16.13;;;;;;;;;;5040666;28;20194;-72
2022/03/17 14:39:54;;;;;;;20.37;13.83;;;;;;;;;;5041629;28;20229;-71
2022/03/17 14:42:21;;;;;;;24.10;15.03;;;;;;;;;;5040212;28;20222;-71
2022/03/17 14:44:48;;;;;;;25.93;15.03;;;;;;;;;;5040405;28;20201;-72
2022/03/17 14:47:33;;;;;;;24.57;15.97;;;;;;;;;;5041494;28;20194;-72
2022/03/17 14:50:00;;;;;;;23.67;15.40;;;;;;;;;;5039623;28;20214;-71
2022/03/17 14:52:27;;;;;;;31.40;16.27;;;;;;;;;;5039907;28;20721;-72
2022/03/17 14:54:53;;;;;;;23.43;14.60;;;;;;;;;;5041079;28;20195;-71
2022/03/17 14:57:20;;;;;;;29.00;15.10;;;;;;;;;;5039779;28;20241;-73
2022/03/17 14:59:47;;;;;;;20.90;14.07;;;;;;;;;;5041622;28;20695;-68
2022/03/17 15:02:14;;;;;;;26.57;15.10;;;;;;;;;;5038972;28;20620;-69
2022/03/17 15:04:41;;;;;;;24.70;14.23;;;;;;;;;;5044564;28;20195;-72
2022/03/17 15:07:08;;;;;;;26.63;16.20;;;;;;;;;;5050978;28;20786;-72
2022/03/17 15:09:35;;;;;;;27.70;15.87;;;;;;;;;;5050769;28;20194;-72
2022/03/17 15:12:02;;;;;;;25.43;14.93;;;;;;;;;;5050558;28;20650;-71
2022/03/17 15:14:29;;;;;;;28.03;15.57;;;;;;;;;;5050897;28;20270;-72
2022/03/17 15:16:56;;;;;;;27.27;15.23;;;;;;;;;;5051725;28;20269;-71
2022/03/17 15:19:23;;;;;;;26.60;15.47;;;;;;;;;;5050831;28;20163;-71
2022/03/17 15:21:50;;;;;;;28.30;16.27;;;;;;;;;;5043361;28;20223;-70
2022/03/17 15:24:16;;;;;;;29.23;16.60;;;;;;;;;;5049805;28;20274;-69
2022/03/17 15:26:43;;;;;;;27.20;14.87;;;;;;;;;;5049699;28;20198;-71